Tiempo atmosférico en la estación meteorológica de Albacete, Albacete (674 m.)



Fecha
DESCASC
Temp. máxima en grados centígrados (hora)
DESCASC
Temp. mínima en grados centígrados (hora)
DESCASC
Temp. media en grados centígrados
DESCASC
Racha de viento máxima en m/sg (hora)
DESCASC
Velocidad máxima media en intervalos de 10 minutos(hora)
DESCASC
Precipitaciones diarias en mm
DESCASC
Precipitaciones de 00:00 a 06:00 en mm
DESCASC
Precipitaciones de 06:00 a 12:00 en mm
DESCASC
Precipitaciones de 12:00 a 18:00 en mm
DESCASC
Precipitaciones de 18:00 a 24:00 en mm
DESCASC
13-10-2019 29.6 (15:30) 13.9 (08:50) 21.8 9.72 (16:30) 3.61 (17:10) 0 0 0 0 0
12-10-2019 26.4 (16:20) 14.3 (08:20) 20.3 6.39 (14:00) 2.78 (13:00) 0 0 0 0 0
11-10-2019 27.6 (16:10) 17.2 (08:50) 22.4 7.5 (16:50) 2.78 (04:20) 0 0 0 0 0
10-10-2019 26.1 (15:50) 17.7 (00:00) 21.9 7.78 (16:00) 2.78 (11:40) 0 0 0 0 0
09-10-2019 31.4 (16:40) 13.9 (00:00) 22.6 6.11 (00:30) 1.94 (01:20) 0 0 0 0 0
08-10-2019 28.4 (16:30) 13.3 (00:00) 20.8 6.39 (11:30) 2.22 (11:40) 0 0 0 0 0
07-10-2019 31.2 (17:00) 13.3 (00:00) 22.3 6.94 (13:10) 2.78 (10:50) 0 0 0 0 0
06-10-2019 28.4 (17:30) 12.8 (00:00) 20.6 6.39 (15:10) 2.22 (14:40) 0 0 0 0 0
05-10-2019 29.8 (16:40) 11.9 (00:00) 20.8 5 (15:10) 1.94 (15:10) 0 0 0 0 0
04-10-2019 30 (17:30) 11.2 (00:00) 20.6 4.17 (16:00) 1.67 (16:20) 0 0 0 0 0
03-10-2019 25.8 (17:20) 10.3 (00:00) 18 9.17 (13:30) 2.78 (13:20) 0 0 0 0 0
02-10-2019 25.5 (16:40) 14.1 (00:00) 19.8 10.83 (17:40) 3.61 (15:50) 0 0 0 0 0
01-10-2019 29.6 (15:30) 15.3 (00:00) 22.5 9.44 (16:30) 4.17 (17:30) 0 0 0 0 0
30-09-2019 32.2 (16:50) 13.8 (00:00) 23 5.28 (21:40) 1.94 (21:50) 0 0 0 0 0
29-09-2019 32.1 (16:20) 14.4 (00:00) 23.2 6.39 (18:30) 2.22 (16:30) 0 0 0 0 0
28-09-2019 31.5 (15:40) 14 (00:00) 22.8 7.22 (17:50) 2.22 (19:50) 0 0 0 0 0
27-09-2019 30.9 (17:20) 14.7 (00:00) 22.8 5.28 (15:30) 1.94 (15:30) 0 0 0 0 0
26-09-2019 29.5 (16:10) 12.6 (00:00) 21.1 5.83 (22:00) 1.94 (21:20) 0 0 0 0 0
25-09-2019 26.4 (16:40) 16.2 (00:00) 21.3 6.67 (16:50) 2.5 (12:40) 0 0 0 0 0
24-09-2019 29.4 (17:00) 13.2 (00:00) 21.3 8.33 (15:40) 2.5 (17:20) 0 0 0 0 0
23-09-2019 25.3 (17:10) 11.9 (00:00) 18.6 5.83 (16:50) 1.39 (12:20) 0.1 0 0 0.1 0
22-09-2019 24.6 (15:00) 17 (00:00) 20.8 10.83 (13:50) 3.89 (17:10) 0 0 0 0 0
21-09-2019 24.5 (16:40) 16.9 (00:00) 20.7 6.94 (18:10) 2.5 (18:00) 0.5 0 0.2 0.2 0.1
20-09-2019 25.2 (16:10) 16.9 (00:00) 21.1 8.06 (18:30) 3.61 (16:30) 0 0 0 0 0
19-09-2019 28.2 (14:20) 15.9 (00:00) 22.1 6.11 (18:00) 2.22 (18:40) 0 0 0 0 0
18-09-2019 29.1 (16:50) 14.8 (00:00) 22 4.72 (17:40) 1.39 (17:00) 0 0 0 0 0
17-09-2019 28.8 (16:40) 17.1 (00:00) 22.9 8.06 (19:10) 2.78 (19:10) 0.4 0 0 0 0.4
16-09-2019 27.7 (17:10) 17.5 (00:00) 22.6 4.17 (22:30) 1.39 (11:40) 0 0 0 0 0

Gráficas

Temp. máximas Temp. mínimas Temp. medias Precipitaciones Rachas de viento máximas Velocidades máximas media en intervalos de 10 minutos

Datos horarios

Fecha y hora oficial Temperatura (ºC) Velocidad del viento (km/h) Dirección del viento Racha (km/h) Dirección de racha Precipitación (mm) Presión (hPa) Tendencia (hPa) Humedad (%)
2019-10-15 23:00:00 11.4 3 Sudoeste 8 Sudoeste 0 943.6 1 47
2019-10-15 22:00:00 12.3 0 Calma 3 Oeste 0 943.3 0.9 44
2019-10-15 21:00:00 13.6 0 Calma 9 Oeste 0 942.9 1.1 40
2019-10-15 20:00:00 14.9 3 Noroeste 18 Oeste 0 942.6 0.9 37
2019-10-15 19:00:00 16.3 6 Oeste 23 Oeste 0 942.4 0.3 34
2019-10-15 18:00:00 17.7 6 Oeste 28 Oeste 0 941.8 -0.9 33
2019-10-15 17:00:00 17.9 8 Oeste 24 Oeste 0 941.7 -1.3 33
2019-10-15 16:00:00 17.7 8 Oeste 23 Sudoeste 0 942.1 -1.4 35
2019-10-15 15:00:00 16.5 6 Oeste 29 Oeste 0 942.7 -1.1 39
2019-10-15 14:00:00 15.6 9 Oeste 28 Oeste 0 943 -0.3 41
2019-10-15 13:00:00 14.5 6 Oeste 24 Noroeste 0 943.5 0.6 45
2019-10-15 12:00:00 13.1 7 Oeste 30 Oeste 0 943.8 1.4 53
2019-10-15 11:00:00 11 10 Oeste 30 Oeste 0 943.3 1.8 64
2019-10-15 10:00:00 9.6 6 Oeste 18 Oeste 0 942.9 1.8 81
2019-10-15 09:00:00 8.5 4 Oeste 18 Noroeste 0 942.4 1.7 92
2019-10-15 08:00:00 8.5 6 Oeste 19 Oeste 0 941.5 0.8 93
2019-10-15 07:00:00 9.1 5 Oeste 21 Noroeste 0 941.1 0.3 90
2019-10-15 06:00:00 9.4 7 Oeste 21 Oeste 0 940.7 0 85
2019-10-15 05:00:00 9.9 7 Oeste 16 Oeste 0 940.7 0.2 82
2019-10-15 04:00:00 10.5 4 Oeste 22 Noroeste 0 940.8 0.7 79
2019-10-15 03:00:00 10.7 7 Oeste 21 Oeste 0 940.7 0.8 78
2019-10-15 02:00:00 11.9 9 Oeste 20 Noroeste 0 940.5 1 75
2019-10-15 01:00:00 12.3 8 Oeste 25 Oeste 0 940.1 1.2 75
2019-10-15 00:00:00 12.5 6 Oeste 27 Oeste 0 939.9 3 74
2019-10-14 23:00:00 13.2 5 Oeste 31 Oeste 0 939.5 3.1 74
2019-10-14 22:00:00 13.6 7 Oeste 38 Oeste 0 938.9 2.9 66
2019-10-14 21:00:00 17.8 12 Oeste 34 Sudoeste 0 936.9 1.2 46
2019-10-14 20:00:00 18.8 14 Oeste 33 Sudoeste 0 936.4 0.4 44
2019-10-14 19:00:00 20.4 11 Oeste 42 Sudoeste 0 936 0.2 40
2019-10-14 18:00:00 21.4 15 Oeste 45 Oeste 0 935.7 -0.6 40
2019-10-14 17:00:00 21.8 17 Oeste 42 Oeste 0 936 -1.4 40
2019-10-14 16:00:00 22 16 Sudoeste 36 Oeste 0 935.8 -2.4 44
2019-10-14 15:00:00 21.8 12 Sudoeste 37 Oeste 0 936.3 -1.4 48
2019-10-14 14:00:00 20.2 4 Sur 19 Sudeste 0 937.4 -0.5 69
2019-10-14 13:00:00 16.9 0 Calma 17 Nordeste 0.6 938.2 0.8 96
2019-10-14 12:00:00 17 3 Nordeste 18 Este 1.7 937.7 0.8 90
2019-10-14 11:00:00 17.9 3 Sudeste 12 Sudeste 0 937.9 1.9 80
2019-10-14 10:00:00 17.7 3 Sur 13 Sudeste 0 937.4 1.5 84
2019-10-14 09:00:00 16.9 6 Sudeste 16 Sur 0 936.9 0.9 89
2019-10-14 08:00:00 16.8 6 Sur 25 Sur 0 936 -0.1 87
2019-10-14 07:00:00 17 8 Sudeste 25 Sudeste 0 935.9 -0.9 89
2019-10-14 06:00:00 16.9 9 Sudeste 26 Este 0 936 -1.9 93
2019-10-14 05:00:00 17.1 10 Sudeste 29 Sur 0 936.1 -2.2 94
2019-10-14 04:00:00 17.4 10 Sudeste 26 Sudeste 0 936.8 -1.8 94
2019-10-14 03:00:00 17.6 5 Sudeste 21 Sudeste 0 937.9 -1.1 93
2019-10-14 02:00:00 18.1 7 Sudeste 21 Sudeste 0 938.3 -0.7 89
2019-10-14 01:00:00 18.8 6 Sudeste 23 Sur 0 938.6 -0.2 84
2019-10-14 00:00:00 19.6 6 Sudeste 29 Sudeste 0 939 0.2 79
2019-10-13 23:00:00 20.4 5 Sudeste 18 Sudeste 0 939 0.6 70
2019-10-13 22:00:00 21.1 5 Sur 17 Sudoeste 0 938.8 0.7 64
2019-10-13 21:00:00 22.3 4 Sur 16 Sudeste 0 938.8 0.6 56
2019-10-13 20:00:00 24.4 0 Calma 15 Sudoeste 0 938.4 0.1 28
2019-10-13 19:00:00 26.9 7 Oeste 21 Oeste 0 938.1 0 22
2019-10-13 18:00:00 28.4 8 Sudoeste 33 Sudoeste 0 938.2 -0.6 21
2019-10-13 17:00:00 28.9 12 Oeste 35 Oeste 0 938.3 -1.2 20
2019-10-13 16:00:00 28.9 5 Sur 18 Sur 0 938.1 -2.1 29
2019-10-13 15:00:00 28.2 0 Calma 14 Este 0 938.8 -1.7 33
2019-10-13 14:00:00 27 3 Este 10 Sudeste 0 939.5 -1.1 41
2019-10-13 13:00:00 25.2 4 Este 16 Este 0 940.2 0 50
2019-10-13 12:00:00 22.4 4 Sudeste 15 Nordeste 0 940.5 0.5 64
2019-10-13 11:00:00 18.7 4 Sur 16 Sudeste 0 940.6 0.8 84
2019-10-13 10:00:00 15.2 2 Este 5 Nordeste 0 940.2 0.6 95
2019-10-13 09:00:00 14 0 Calma 6 Este 0 940 0.7 95
2019-10-13 08:00:00 14.3 0 Calma 3 Nordeste 0 939.8 0.2 93
2019-10-13 07:00:00 15.2 0 Calma 9 Este 0 939.6 -0.1 94
2019-10-13 06:00:00 16.2 3 Este 14 Sudeste 0 939.3 -0.9 92
2019-10-13 05:00:00 17 6 Sudeste 18 Sudeste 0 939.6 -1 92
2019-10-13 04:00:00 17.2 6 Sudeste 15 Sudeste 0 939.7 -0.9 92
2019-10-13 03:00:00 17.8 3 Este 12 Sudeste 0 940.2 -0.5 90
2019-10-13 02:00:00 18.4 3 Este 10 Nordeste 0 940.6 0 87
2019-10-13 01:00:00 18.7 4 Este 12 Este 0 940.6 0.6 87
2019-10-13 00:00:00 19.2 3 Este 15 Nordeste 0 940.7 0.9 85
2019-10-12 23:00:00 19.4 2 Este 16 Sudeste 0 940.6 1.1 84
2019-10-12 22:00:00 19.7 3 Este 14 Este 0 940 1.1 81
2019-10-12 21:00:00 20.6 3 Este 15 Este 0 939.8 0.6 68
2019-10-12 20:00:00 21.9 4 Sudeste 14 Sudeste 0 939.5 0.2 60
2019-10-12 19:00:00 23.4 8 Sudeste 17 Sudeste 0 938.9 -0.7 53
2019-10-12 18:00:00 25.3 5 Sudeste 19 Sudeste 0 939.2 -0.9 46
2019-10-12 17:00:00 26 5 Sudeste 20 Sudeste 0 939.3 -1.6 41
2019-10-12 16:00:00 25.6 4 Sudeste 16 Sudeste 0 939.6 -2.1 43
2019-10-12 15:00:00 24.9 4 Sur 15 Sur 0 940.1 -1.8 43
2019-10-12 14:00:00 24.7 7 Sudeste 23 Sudeste 0 940.9 -1.1 44
2019-10-12 13:00:00 21.6 10 Sudeste 19 Sudeste 0 941.7 -0.1 57
2019-10-12 12:00:00 20.4 6 Sudeste 16 Sudeste 0 941.9 0.7 57
2019-10-12 11:00:00 17.9 4 Sudeste 9 Sur 0 942 1 79
2019-10-12 10:00:00 15.8 2 Sudeste 6 Sudeste 0 941.8 0.7 91
2019-10-12 09:00:00 14.7 0 Calma 7 Sudeste 0 941.2 0 96
2019-10-12 08:00:00 14.4 3 Este 6 Este 0 941 0 94
2019-10-12 07:00:00 15.3 0 Calma 6 Nordeste 0 941.1 -0.5 93
2019-10-12 06:00:00 15.7 0 Calma 12 Sudeste 0 941.2 -0.7 91
2019-10-12 05:00:00 16.2 3 Sudeste 15 Sudeste 0 941 -1.2 91
2019-10-12 04:00:00 16.7 6 Sudeste 16 Sudeste 0 941.6 -0.8 87
2019-10-12 03:00:00 17 3 Este 13 Sudeste 0 941.9 -0.4 84
2019-10-12 02:00:00 17.7 3 Sudeste 17 Sudeste 0 942.2 -0.3 80
2019-10-12 01:00:00 18.2 0 Calma 16 Sudeste 0 942.4 0.6 77
2019-10-12 00:00:00 18.6 0 Calma 15 Sudeste 0 942.3 1.2 73
2019-10-11 23:00:00 19.3 2 Sudeste 21 Sudoeste 0 942.5 1.6 70
2019-10-11 22:00:00 19.9 5 Sudeste 21 Sudeste 0 941.8 0.8 69
2019-10-11 21:00:00 20.8 6 Sur 22 Sudeste 0 941.1 0.3 63
2019-10-11 20:00:00 21.9 6 Sur 20 Sudeste 0 940.9 -0.2 54
2019-10-11 19:00:00 23.2 4 Sur 26 Sudeste 0 941 -0.7 44
2019-10-11 18:00:00 25 6 Sur 24 Sudeste 0 940.8 -1.7 38
2019-10-11 17:00:00 25.9 9 Sudeste 27 Nordeste 0 941.1 -2.4 35
2019-10-11 16:00:00 27.3 7 Sudeste 24 Sudoeste 0 941.7 -2.7 32
2019-10-11 15:00:00 26 6 Sudeste 23 Sudoeste 0 942.5 -2.3 35
2019-10-11 14:00:00 25 6 Sudeste 20 Sudeste 0 943.5 -1.6 35
2019-10-11 13:00:00 23.8 5 Sudeste 21 Sudeste 0 944.4 -0.3 44
2019-10-11 12:00:00 20.9 9 Sudeste 19 Sudeste 0 944.8 0.8 62
2019-10-11 11:00:00 18.8 8 Sudeste 21 Sudeste 0 945.1 1.5 76
2019-10-11 10:00:00 17.5 4 Sudeste 18 Este 0 944.7 1.2 83
2019-10-11 09:00:00 17.3 5 Sudeste 17 Sudeste 0 944 0.3 83
2019-10-11 08:00:00 17.4 5 Sudeste 22 Sudeste 0 943.6 -0.2 84
2019-10-11 07:00:00 17.4 6 Sudeste 20 Sudoeste 0 943.5 -0.2 83
2019-10-11 06:00:00 17.4 6 Sudeste 23 Sudeste 0 943.7 -0.2 83
2019-10-11 05:00:00 17.6 7 Sudeste 22 Sudeste 0 943.8 -0.4 84
2019-10-11 04:00:00 17.6 7 Sudeste 20 Sudeste 0 943.7 -0.6 86
2019-10-11 03:00:00 17.7 6 Sudeste 19 Sudeste 0 943.9 -0.5 87
2019-10-11 02:00:00 17.7 6 Sudeste 19 Sudeste 0 944.2 0 87
2019-10-11 01:00:00 17.4 6 Sudeste 17 Sudeste 0 944.3 0.6 87
2019-10-11 00:00:00 17.9 4 Este 12 Nordeste 0 944.4 1.4 83
2019-10-10 23:00:00 18.9 2 Este 17 Sudeste 0 944.2 1.6 77
2019-10-10 22:00:00 19.7 0 Calma 14 Sudeste 0 943.7 1.4 73
2019-10-10 21:00:00 20.7 4 Sudeste 19 Sur 0 943 0.9 64
2019-10-10 20:00:00 21.8 5 Sur 24 Sur 0 942.6 0.4 57
2019-10-10 19:00:00 23 8 Sudeste 25 Sudeste 0 942.3 0 51
2019-10-10 18:00:00 25 10 Sudeste 24 Sudeste 0 942.1 -0.6 47
2019-10-10 17:00:00 26 9 Sudeste 25 Sudeste 0 942.2 -1.2 44
2019-10-10 16:00:00 25.9 9 Sudeste 28 Sudeste 0 942.3 -1.7 45
2019-10-10 15:00:00 24.9 9 Sudeste 22 Sudeste 0 942.7 -1.5 50
2019-10-10 14:00:00 23 8 Sur 23 Sur 0 943.4 -0.8 59
2019-10-10 13:00:00 20.7 8 Sudeste 26 Sudeste 0 944 0.1 72
2019-10-10 12:00:00 19.8 9 Sudeste 23 Sudeste 0 944.2 1.1 75
2019-10-10 11:00:00 19.3 8 Sudeste 20 Sur 0 944.2 1.5 79
2019-10-10 10:00:00 18.5 7 Sudeste 22 Sudeste 0 943.9 1.6 83
2019-10-10 09:00:00 18 5 Sudeste 15 Nordeste 0 943.1 1 83
2019-10-10 08:00:00 17.7 4 Este 19 Sudeste 0 942.7 0.7 83
2019-10-10 07:00:00 17.7 5 Sudeste 19 Sudeste 0 942.3 0.4 81
2019-10-10 06:00:00 17.9 6 Este 16 Este 0 942.1 0 81
2019-10-10 05:00:00 18.2 6 Este 19 Este 0 942 0.1 83
2019-10-10 04:00:00 18.3 6 Este 15 Este 0 941.9 0.3 86
2019-10-10 03:00:00 18.3 5 Este 13 Este 0 942.1 0.7 87
2019-10-10 02:00:00 18.1 0 Calma 10 Este 0 941.9 1.1 87
2019-10-10 01:00:00 18.7 3 Este 15 Este 0 941.6 1.7 88
2019-10-10 00:00:00 19.2 5 Este 14 Nordeste 0 941.4 2.1 79
2019-10-09 23:00:00 21.1 4 Nordeste 21 Sudeste 0 940.8 1.9 66
2019-10-09 22:00:00 22.2 5 Sudeste 16 Sudoeste 0 939.9 1.7 60
2019-10-09 21:00:00 23.5 3 Sur 15 Sur 0 939.3 1.2 52
2019-10-09 20:00:00 25.6 5 Sur 19 Sudeste 0 938.9 0.8 43
2019-10-09 19:00:00 29 0 Calma 7 Nordeste 0 938.2 -0.4 29
2019-10-09 18:00:00 30.8 0 Calma 12 Oeste 0 938.1 -0.7 26
2019-10-09 17:00:00 30.4 6 Oeste 15 Oeste 0 938.1 -1.3 26
2019-10-09 16:00:00 30.8 0 Calma 15 Noroeste 0 938.6 -1.6 27
2019-10-09 15:00:00 29.7 0 Calma 12 Sudoeste 0 938.8 -1.8 31
2019-10-09 14:00:00 28.2 3 Este 9 Nordeste 0 939.4 -1.2 35
2019-10-09 13:00:00 25.6 2 Este 10 Noroeste 0 940.2 -0.1 42
2019-10-09 12:00:00 22.6 0 Calma 6 Este 0 940.6 0.8 54
2019-10-09 11:00:00 18.1 0 Calma 7 Este 0 940.6 1 80
2019-10-09 10:00:00 15.7 0 Calma 5 Este 0 940.3 0.8 95
2019-10-09 09:00:00 14 0 Calma 4 Nordeste 0 939.8 0.4 96
2019-10-09 08:00:00 14.2 0 Calma 0 Calma 0 939.6 0.1 94
2019-10-09 07:00:00 15 0 Calma 0 Calma 0 939.5 -0.3 93
2019-10-09 06:00:00 15.7 0 Calma 7 Este 0 939.4 -0.8 93
2019-10-09 05:00:00 16.2 0 Calma 11 Sudeste 0 939.5 -1 90
2019-10-09 04:00:00 16.9 5 Sudeste 15 Sur 0 939.8 -0.7 89
2019-10-09 03:00:00 17.3 5 Sudeste 19 Sur 0 940.2 -0.4 87
2019-10-09 02:00:00 17.9 3 Sudeste 21 Sur 0 940.5 -0.1 87
2019-10-09 01:00:00 17.8 6 Sudeste 22 Sur 0 940.5 -0.1 85
2019-10-09 00:00:00 18.4 4 Sudeste 19 Sur 0 940.6 0.1 83
2019-10-08 23:00:00 19.1 4 Sur 21 Sudoeste 0 940.6 0.3 78
2019-10-08 22:00:00 20 5 Sur 17 Sudoeste 0 940.6 0.6 70
2019-10-08 21:00:00 21.5 6 Sudeste 20 Sur 0 940.5 0.6 62
2019-10-08 20:00:00 23.1 7 Sudeste 18 Sur 0 940.3 0 55
2019-10-08 19:00:00 25.3 8 Sudeste 19 Sudeste 0 940 -0.7 48
2019-10-08 18:00:00 27.3 7 Sudeste 21 Este 0 939.9 -1 43
2019-10-08 17:00:00 28.3 5 Sudeste 19 Sudeste 0 940.3 -1.3 40
2019-10-08 16:00:00 27.6 5 Sur 21 Sur 0 940.7 -1.9 42
2019-10-08 15:00:00 27 5 Sur 20 Sur 0 940.9 -2.2 43
2019-10-08 14:00:00 26.5 7 Sudeste 22 Sudeste 0 941.6 -1.7 46
2019-10-08 13:00:00 24.4 5 Sur 22 Sur 0 942.6 -0.6 53
2019-10-08 12:00:00 21.9 5 Sur 23 Sudeste 0 943.1 0.3 66
2019-10-08 11:00:00 18.4 6 Sudeste 19 Sudeste 0 943.3 1 84
2019-10-08 10:00:00 16.4 4 Sudeste 15 Sudeste 0 943.2 1.3 93
2019-10-08 09:00:00 14.7 0 Calma 12 Sudeste 0 942.8 1.1 90
2019-10-08 08:00:00 13.5 0 Calma 5 Este 0 942.3 0.6 84
2019-10-08 07:00:00 14 0 Calma 3 Oeste 0 941.9 0.2 82
2019-10-08 06:00:00 14.8 0 Calma -- -- 0 941.7 -0.1 79
2019-10-08 05:00:00 15.8 0 Calma 5 Sudeste 0 941.7 0.1 76
2019-10-08 04:00:00 16.4 2 Este 5 Sudeste 0 941.7 0 70
2019-10-08 03:00:00 16.8 0 Calma 6 Este 0 941.8 0.1 60
2019-10-08 02:00:00 17.8 0 Calma 7 Oeste 0 941.6 0.3 56
2019-10-08 01:00:00 19 0 Calma 7 Oeste 0 941.7 1 53
2019-10-08 00:00:00 20 4 Sudoeste 10 Sudoeste 0 941.7 1.5 49
2019-10-07 23:00:00 20.7 0 Calma 11 Oeste 0 941.3 1.6 46
2019-10-07 22:00:00 21.9 6 Oeste 15 Oeste 0 940.7 1.2 42
2019-10-07 21:00:00 23.5 5 Oeste 14 Oeste 0 940.2 1.2 38
2019-10-07 20:00:00 26.5 3 Oeste 12 Oeste 0 939.7 0.5 33
2019-10-07 19:00:00 28.3 5 Oeste 13 Oeste 0 939.5 0.1 31
2019-10-07 18:00:00 30.6 4 Noroeste 21 Sudoeste 0 939 -0.9 29
2019-10-07 17:00:00 31.2 3 Noroeste 19 Oeste 0 939.2 -1.3 29
2019-10-07 16:00:00 29.8 4 Noroeste 19 Norte 0 939.4 -1.4 30
2019-10-07 15:00:00 29.5 6 Noroeste 23 Noroeste 0 939.9 -1.8 30
2019-10-07 14:00:00 27.3 7 Oeste 25 Oeste 0 940.5 -1.4 31
2019-10-07 13:00:00 25 7 Oeste 24 Oeste 0 940.8 -0.4 37
2019-10-07 12:00:00 22.6 4 Oeste 21 Oeste 0 941.7 0.5 43
2019-10-07 11:00:00 19.1 8 Oeste 24 Oeste 0 941.9 1.1 54
2019-10-07 10:00:00 16.7 5 Noroeste 21 Oeste 0 941.2 0.6 59
2019-10-07 09:00:00 13.8 2 Noroeste 9 Oeste 0 941.2 0.8 65
2019-10-07 08:00:00 13.5 2 Oeste 8 Oeste 0 940.8 0.4 65
2019-10-07 07:00:00 13.6 0 Calma 6 Oeste 0 940.6 0 63
2019-10-07 06:00:00 14.3 0 Calma 8 Oeste 0 940.4 -0.8 60
2019-10-07 05:00:00 15.3 3 Oeste 10 Oeste 0 940.4 -0.7 56
2019-10-07 04:00:00 15.8 4 Oeste 8 Oeste 0 940.6 -0.7 55
2019-10-07 03:00:00 16.1 2 Sudoeste 10 Sudoeste 0 941.2 -0.5 54
2019-10-07 02:00:00 17.1 5 Sudoeste 12 Oeste 0 941.1 -0.4 52
2019-10-07 01:00:00 18.3 3 Sudoeste 9 Sudoeste 0 941.3 0.1 50
2019-10-07 00:00:00 19 4 Sudoeste 11 Sudoeste 0 941.7 1 50
2019-10-06 23:00:00 19.6 4 Sudoeste 10 Sudoeste 0 941.5 1.4 48
2019-10-06 22:00:00 21 0 Calma 6 Oeste 0 941.2 1 44
2019-10-06 21:00:00 23 2 Oeste 10 Oeste 0 940.7 0.4 40
2019-10-06 20:00:00 24.4 3 Oeste 10 Oeste 0 940.1 -0.5 36
2019-10-06 19:00:00 26.1 4 Oeste 19 Oeste 0 940.2 -0.5 33
2019-10-06 18:00:00 27.5 7 Oeste 21 Oeste 0 940.3 -1.1 33
2019-10-06 17:00:00 27.8 6 Oeste 20 Oeste 0 940.6 -1.5 34
2019-10-06 16:00:00 27.2 5 Oeste 23 Oeste 0 940.7 -1.8 35
2019-10-06 15:00:00 28 6 Oeste 22 Oeste 0 941.4 -1.3 37
2019-10-06 14:00:00 26.9 5 Noroeste 20 Oeste 0 942.1 -0.4 39
2019-10-06 13:00:00 24.9 5 Noroeste 19 Oeste 0 942.5 0.2 43
2019-10-06 12:00:00 21.8 4 Oeste 13 Oeste 0 942.7 1.4 53
2019-10-06 11:00:00 17.9 0 Calma 9 Noroeste 0 942.5 1.3 62
2019-10-06 10:00:00 15.6 2 Noroeste 7 Sudoeste 0 942.3 1.4 67
2019-10-06 09:00:00 13.4 0 Calma 4 Sur 0 941.3 0.7 74
2019-10-06 08:00:00 12.9 0 Calma 0 Calma 0 941.2 0.7 73
2019-10-06 07:00:00 13.7 0 Calma 0 Calma 0 940.9 0.3 69
2019-10-06 06:00:00 14.5 0 Calma 7 Sur 0 940.6 0.1 64
2019-10-06 05:00:00 14.4 0 Calma 5 Sudoeste 0 940.5 0.1 64
2019-10-06 04:00:00 15.1 0 Calma 3 Oeste 0 940.6 0.3 60
2019-10-06 03:00:00 16.4 2 Sudoeste 11 Sudoeste 0 940.5 0 55
2019-10-06 02:00:00 17.1 5 Sudoeste 14 Sur 0 940.4 0 54
2019-10-06 01:00:00 18 5 Sudoeste 11 Sudoeste 0 940.3 0.4 54
2019-10-06 00:00:00 19.2 3 Sudoeste 8 Sur 0 940.5 1.1 51
2019-10-05 23:00:00 19.7 3 Sudoeste 9 Sudoeste 0 940.4 1.5 48
2019-10-05 22:00:00 20.1 0 Calma -- -- 0 939.9 1.5 46
2019-10-05 21:00:00 21.9 0 Calma 5 Noroeste 0 939.4 1.3 41
2019-10-05 20:00:00 24.6 0 Calma 10 Noroeste 0 938.9 0.7 37
2019-10-05 19:00:00 27.3 3 Noroeste 14 Norte 0 938.4 0.1 33
2019-10-05 18:00:00 29.4 0 Calma 13 Norte 0 938.1 -0.7 31
2019-10-05 17:00:00 28.9 5 Oeste 16 Oeste 0 938.2 -1.3 31
2019-10-05 16:00:00 29.1 0 Calma 18 Oeste 0 938.3 -1.8 33
2019-10-05 15:00:00 28.2 3 Sudoeste 17 Oeste 0 938.8 -1.5 34
2019-10-05 14:00:00 27 2 Sudoeste 8 Sudeste 0 939.5 -0.8 37
2019-10-05 13:00:00 25.1 3 Este 10 Este 0 940.1 0 43
2019-10-05 12:00:00 21.1 0 Calma 7 Norte 0 940.3 0.6 51
2019-10-05 11:00:00 17.2 0 Calma 5 Sudoeste 0 940.3 1.3 60
2019-10-05 10:00:00 14 2 Este 4 Este 0 940.1 1.1 71
2019-10-05 09:00:00 12.2 0 Calma 4 Norte 0 939.7 0.8 75
2019-10-05 08:00:00 12.1 0 Calma -- -- 0 939 0 74
2019-10-05 07:00:00 12.9 0 Calma 2 Oeste 0 939 0.2 70
2019-10-05 06:00:00 13.9 0 Calma 4 Este 0 938.9 -0.3 63
2019-10-05 05:00:00 15.1 0 Calma 8 Sudoeste 0 939 0 57
2019-10-05 04:00:00 15.6 0 Calma 5 Oeste 0 938.8 -0.3 56
2019-10-05 03:00:00 16.7 2 Oeste 7 Oeste 0 939.2 0 51
2019-10-05 02:00:00 17.8 0 Calma 8 Sudoeste 0 939 -0.2 50
2019-10-05 01:00:00 18.8 3 Sudoeste 8 Sudoeste 0 939.1 0.1 50
2019-10-05 00:00:00 19.7 2 Sudoeste 12 Sur 0 939.2 0.5 47
2019-10-04 23:00:00 20.7 4 Sur 10 Sudoeste 0 939.2 1 44
2019-10-04 22:00:00 20.9 3 Sudeste 10 Sudeste 0 939 1 44
2019-10-04 21:00:00 22 0 Calma 4 Sur 0 938.7 0.6 40
2019-10-04 20:00:00 24.6 0 Calma 8 Oeste 0 938.2 -0.2 36
2019-10-04 19:00:00 27.7 3 Oeste 8 Oeste 0 938 -0.9 28
2019-10-04 18:00:00 29 0 Calma 10 Oeste 0 938.1 -1.5 26
2019-10-04 17:00:00 28.9 4 Oeste 14 Sudoeste 0 938.4 -2.2 27
2019-10-04 16:00:00 28.6 4 Sudoeste 15 Sudoeste 0 938.9 -2.5 28
2019-10-04 15:00:00 27.6 4 Noroeste 14 Oeste 0 939.6 -2.2 29
2019-10-04 14:00:00 26.6 0 Calma 10 Sur 0 940.6 -1.5 33
2019-10-04 13:00:00 24.2 2 Oeste 12 Oeste 0 941.4 -0.3 38
2019-10-04 12:00:00 20.7 0 Calma 6 Noroeste 0 941.8 0.1 50
2019-10-04 11:00:00 16.4 0 Calma 6 Norte 0 942.1 0.9 65
2019-10-04 10:00:00 13.9 3 Este 6 Este 0 941.7 0.8 74
2019-10-04 09:00:00 11.6 0 Calma 0 Calma 0 941.7 0.7 80
2019-10-04 08:00:00 11.3 0 Calma 0 Calma 0 941.2 0 77
2019-10-04 07:00:00 11.8 0 Calma 0 Calma 0 940.9 -0.2 73
2019-10-04 06:00:00 12.3 0 Calma -- -- 0 941 -0.3 70
2019-10-04 05:00:00 12.8 0 Calma 2 Norte 0 941.2 -0.3 66
2019-10-04 04:00:00 13.5 0 Calma 2 Oeste 0 941.1 -0.2 60
2019-10-04 03:00:00 14.9 0 Calma 7 Oeste 0 941.3 -0.4 55
2019-10-04 02:00:00 15.2 2 Oeste 7 Oeste 0 941.5 0.6 54
2019-10-04 01:00:00 15.7 2 Sudoeste 7 Sudoeste 0 941.3 0.2 51
2019-10-04 00:00:00 16.4 3 Sudoeste 14 Oeste 0 941.7 1 48
2019-10-03 23:00:00 18.1 5 Oeste 14 Noroeste 0 940.9 0.7 43
2019-10-03 22:00:00 19.6 5 Oeste 14 Oeste 0 941.1 1.1 39
2019-10-03 21:00:00 20.9 4 Oeste 21 Oeste 0 940.7 1 36
2019-10-03 20:00:00 22.2 5 Oeste 19 Oeste 0 940.2 0.1 34
2019-10-03 19:00:00 23.7 7 Oeste 23 Oeste 0 940 -0.4 30
2019-10-03 18:00:00 25.3 5 Oeste 28 Oeste 0 939.7 -1 29
2019-10-03 17:00:00 25.3 10 Oeste 25 Oeste 0 940.1 -1.1 30
2019-10-03 16:00:00 25 9 Oeste 26 Oeste 0 940.4 -1.2 32
2019-10-03 15:00:00 24.2 8 Oeste 29 Oeste 0 940.7 -1.1 34
2019-10-03 14:00:00 23.2 9 Oeste 33 Oeste 0 941.2 -0.8 37
2019-10-03 13:00:00 22 10 Oeste 27 Oeste 0 941.6 -0.2 40
2019-10-03 12:00:00 19.5 5 Oeste 22 Oeste 0 941.8 0.3 48
2019-10-03 11:00:00 16.1 5 Oeste 14 Oeste 0 942 0.8 60
2019-10-03 10:00:00 12 3 Oeste 13 Oeste 0 941.8 1 73
2019-10-03 09:00:00 10.6 0 Calma 9 Sudoeste 0 941.5 0.5 76
2019-10-03 08:00:00 10.7 0 Calma 10 Sudoeste 0 941.2 0.4 74
2019-10-03 07:00:00 11.6 4 Oeste 8 Sudoeste 0 940.8 0 71
2019-10-03 06:00:00 11.7 3 Oeste 7 Sudoeste 0 941 -0.2 69
2019-10-03 05:00:00 11.9 3 Sudoeste 8 Oeste 0 940.8 -0.3 67
2019-10-03 04:00:00 12.2 0 Calma 3 Oeste 0 940.8 -0.5 66
2019-10-03 03:00:00 12.9 0 Calma 3 Oeste 0 941.2 0.3 62
2019-10-03 02:00:00 13.4 0 Calma 4 Oeste 0 941.1 0.1 57
2019-10-03 01:00:00 14.5 2 Oeste 10 Oeste 0 941.3 0.6 52
2019-10-03 00:00:00 15.5 3 Oeste 13 Oeste 0 940.9 0.8 47
2019-10-02 23:00:00 16.4 4 Oeste 12 Oeste 0 941 1.6 43
2019-10-02 22:00:00 17.6 6 Oeste 17 Oeste 0 940.7 1.9 38
2019-10-02 21:00:00 19.2 7 Oeste 18 Oeste 0 940.1 1.4 35
2019-10-02 20:00:00 20.9 7 Oeste 23 Oeste 0 939.4 0.7 32
2019-10-02 19:00:00 22.6 7 Oeste 27 Oeste 0 938.8 -0.1 30
2019-10-02 18:00:00 24.2 6 Noroeste 39 Oeste 0 938.7 -0.4 27
2019-10-02 17:00:00 24.8 9 Oeste 31 Oeste 0 938.7 -0.6 27
2019-10-02 16:00:00 24.8 6 Oeste 34 Oeste 0 938.9 -0.9 30
2019-10-02 15:00:00 24.1 6 Noroeste 30 Oeste 0 939.1 -1 35
2019-10-02 14:00:00 22.7 10 Oeste 33 Oeste 0 939.3 -0.7 39
2019-10-02 13:00:00 21.3 8 Oeste 29 Oeste 0 939.8 -0.1 44
2019-10-02 12:00:00 19.9 6 Noroeste 19 Oeste 0 940.1 0.9 53
2019-10-02 11:00:00 17.3 6 Oeste 23 Oeste 0 940 1.4 63
2019-10-02 10:00:00 15 4 Oeste 15 Sudoeste 0 939.9 1.4 71
2019-10-02 09:00:00 14.3 4 Oeste 12 Sudoeste 0 939.2 1 71
2019-10-02 08:00:00 14.3 5 Oeste 14 Oeste 0 938.6 0.6 70
2019-10-02 07:00:00 14.7 4 Oeste 18 Oeste 0 938.5 0.6 68
2019-10-02 06:00:00 15.9 5 Oeste 18 Oeste 0 938.2 0 64
2019-10-02 05:00:00 16.2 6 Oeste 18 Oeste 0 938 -0.1 62
2019-10-02 04:00:00 16.8 7 Oeste 26 Noroeste 0 937.9 -0.2 60
2019-10-02 03:00:00 17.2 7 Oeste 26 Oeste 0 938.2 0.4 58
2019-10-02 02:00:00 18 9 Oeste 24 Oeste 0 938.1 0.5 55
2019-10-02 01:00:00 18.8 7 Oeste 20 Oeste 0 938.1 1.3 53
2019-10-02 00:00:00 19.7 6 Oeste 23 Oeste 0 937.8 1.2 48
2019-10-01 23:00:00 20.2 8 Oeste 22 Sudoeste 0 937.6 1.6 36
2019-10-01 22:00:00 21.2 9 Oeste 18 Oeste 0 936.8 1.1 31
2019-10-01 21:00:00 23.1 6 Oeste 22 Oeste 0 936.6 1 30
2019-10-01 20:00:00 25 5 Oeste 25 Oeste 0 936 0.4 27
2019-10-01 19:00:00 26.7 8 Oeste 32 Oeste 0 935.7 0 25
2019-10-01 18:00:00 28 8 Oeste 33 Noroeste 0 935.6 -0.5 24
2019-10-01 17:00:00 28.7 8 Oeste 34 Oeste 0 935.6 -1.3 24
2019-10-01 16:00:00 29.4 8 Oeste 26 Oeste 0 935.7 -1.8 24
2019-10-01 15:00:00 28.6 6 Noroeste 27 Oeste 0 936.1 -1.8 25
2019-10-01 14:00:00 28 6 Oeste 21 Oeste 0 936.9 -1.2 26
2019-10-01 13:00:00 26.8 6 Noroeste 26 Norte 0 937.5 -0.2 29
2019-10-01 12:00:00 24.3 4 Oeste 15 Oeste 0 937.9 0.7 42
2019-10-01 11:00:00 21.4 3 Oeste 13 Oeste 0 938.1 0.8 51
2019-10-01 10:00:00 17.4 0 Calma 0 Calma 0 937.7 0.4 84
2019-10-01 09:00:00 15.7 0 Calma 0 Calma 0 937.2 0 87
2019-10-01 08:00:00 15.5 0 Calma -- -- 0 937.3 -0.2 84
2019-10-01 07:00:00 16.4 0 Calma 4 Sudoeste 0 937.3 -0.9 81
2019-10-01 06:00:00 16.6 0 Calma -- -- 0 937.2 -1.3 85
2019-10-01 05:00:00 17.1 0 Calma 3 Sudeste 0 937.5 -1.2 85
2019-10-01 04:00:00 18 0 Calma 9 Noroeste 0 938.2 -0.9 78
2019-10-01 03:00:00 19.8 2 Sur 11 Sur 0 938.5 -0.9 75
2019-10-01 02:00:00 20.5 3 Sur 14 Sudoeste 0 938.7 -0.5 73
2019-10-01 01:00:00 21.3 2 Sur 7 Sur 0 939.1 0.3 64
2019-10-01 00:00:00 22 4 Sur 14 Sur 0 939.4 0.9 53
2019-09-30 23:00:00 22.9 3 Sur 16 Sudoeste 0 939.2 0.9 45
2019-09-30 22:00:00 23.7 6 Sudoeste 19 Sudoeste 0 938.8 0.9 41
2019-09-30 21:00:00 25.3 5 Sur 15 Sudoeste 0 938.5 0.4 35
2019-09-30 20:00:00 27.2 4 Sur 18 Sur 0 938.3 -0.2 29
2019-09-30 19:00:00 29.5 3 Sudoeste 10 Oeste 0 937.9 -1.3 23
2019-09-30 18:00:00 31.1 3 Oeste 12 Sur 0 938.1 -1.6 23
2019-09-30 17:00:00 31.4 5 Oeste 17 Oeste 0 938.5 -2 22
2019-09-30 16:00:00 32.1 2 Sudoeste 14 Sudeste 0 939.2 -2.1 22
2019-09-30 15:00:00 31.7 3 Este 13 Este 0 939.7 -1.9 23
2019-09-30 14:00:00 29.8 2 Oeste 8 Este 0 940.5 -1.3 27
2019-09-30 13:00:00 27.1 2 Noroeste 7 Oeste 0 941.3 -0.3 31
2019-09-30 12:00:00 23.6 0 Calma 5 Oeste 0 941.6 0.4 41
2019-09-30 11:00:00 19.3 0 Calma 5 Oeste 0 941.8 0.8 54
2019-09-30 10:00:00 16.8 3 Sudoeste 8 Sudoeste 0 941.6 0.9 61
2019-09-30 09:00:00 14.1 0 Calma 0 Calma 0 941.2 0.5 77
2019-09-30 08:00:00 14 0 Calma 0 Calma 0 941 0.3 73
2019-09-30 07:00:00 14.9 0 Calma 5 Sudoeste 0 940.7 -0.3 64
2019-09-30 06:00:00 15.7 2 Sudoeste 10 Sudoeste 0 940.7 -0.4 57
2019-09-30 05:00:00 16.5 2 Sudoeste 7 Sudoeste 0 940.7 -0.6 54
2019-09-30 04:00:00 17.3 0 Calma 6 Oeste 0 941 -0.2 51
2019-09-30 03:00:00 17.9 4 Oeste 10 Oeste 0 941.1 -0.2 51
2019-09-30 02:00:00 18.3 0 Calma 4 Oeste 0 941.3 0.1 50
2019-09-30 01:00:00 19.5 0 Calma 10 Sur 0 941.2 0.2 43
2019-09-30 00:00:00 20.3 0 Calma 9 Sudoeste 0 941.3 1.1 40
2019-09-29 23:00:00 21.1 2 Sudoeste 7 Sudoeste 0 941.2 1.2 37
2019-09-29 22:00:00 22.1 2 Sudoeste 7 Sur 0 941 1.1 33
2019-09-29 21:00:00 24.4 0 Calma 7 Sudoeste 0 940.2 0.3 27
2019-09-29 20:00:00 26.9 2 Oeste 13 Noroeste 0 940 -0.2 23
2019-09-29 19:00:00 29.5 3 Noroeste 23 Oeste 0 939.9 -0.5 20
2019-09-29 18:00:00 31 5 Oeste 21 Oeste 0 939.9 -1.4 20
2019-09-29 17:00:00 31.6 6 Oeste 23 Sudoeste 0 940.2 -1.7 20
2019-09-29 16:00:00 31.5 5 Oeste 17 Oeste 0 940.4 -2 22
2019-09-29 15:00:00 30 5 Oeste 18 Noroeste 0 941.3 -1.5 24
2019-09-29 14:00:00 29.4 2 Noroeste 15 Oeste 0 941.9 -0.9 28
2019-09-29 13:00:00 27.2 0 Calma 9 Sur 0 942.4 -0.1 36
2019-09-29 12:00:00 22.6 0 Calma 6 Oeste 0 942.8 0.9 53
2019-09-29 11:00:00 18.4 0 Calma 5 Nordeste 0 942.8 1.3 80
2019-09-29 10:00:00 15.5 0 Calma 5 Noroeste 0 942.5 1.2 92
2019-09-29 09:00:00 14.6 0 Calma 5 Este 0 941.9 0.5 92
2019-09-29 08:00:00 15.7 0 Calma 13 Sudeste 0 941.5 0.2 94
2019-09-29 07:00:00 16.1 4 Sudeste 11 Sudeste 0 941.3 -0.4 92
2019-09-29 06:00:00 16.5 3 Sudeste 14 Sudeste 0 941.4 -0.7 91
2019-09-29 05:00:00 17.6 3 Sudeste 12 Sur 0 941.3 -1 89
2019-09-29 04:00:00 17.9 5 Sur 16 Sudeste 0 941.7 -1.1 86
2019-09-29 03:00:00 18.3 5 Sudeste 14 Sudeste 0 942.1 -0.5 77
2019-09-29 02:00:00 18.5 4 Este 14 Sudeste 0 942.3 -0.2 70
2019-09-29 01:00:00 19.1 0 Calma 17 Sudeste 0 942.8 0.6 62
2019-09-29 00:00:00 20.5 7 Sudeste 23 Sudeste 0 942.6 0.8 54
2019-09-28 23:00:00 21.4 5 Sur 22 Sur 0 942.5 0.8 51
2019-09-28 22:00:00 21.8 7 Sudeste 18 Sudeste 0 942.2 0.8 54
2019-09-28 21:00:00 23.2 4 Sur 21 Sur 0 941.8 0.4 52
2019-09-28 20:00:00 25.3 6 Sur 23 Sudoeste 0 941.7 0.1 40
2019-09-28 19:00:00 27.7 6 Sudeste 17 Sudeste 0 941.4 -0.4 32
2019-09-28 18:00:00 29.4 5 Sudeste 26 Sur 0 941.4 -1 31
2019-09-28 17:00:00 29.9 5 Sudoeste 17 Sudoeste 0 941.6 -1.7 30
2019-09-28 16:00:00 30.3 3 Sudeste 19 Sudeste 0 941.8 -1.9 30
2019-09-28 15:00:00 30.2 6 Sudoeste 15 Sur 0 942.4 -1.6 26
2019-09-28 14:00:00 29.1 4 Este 11 Sudoeste 0 943.3 -0.9 31
2019-09-28 13:00:00 26.9 0 Calma 8 Este 0 943.7 0 35
2019-09-28 12:00:00 23.4 0 Calma 5 Sudeste 0 944 0.7 45
2019-09-28 11:00:00 19.5 2 Sur 7 Sudoeste 0 944.2 1.4 60
2019-09-28 10:00:00 16.1 0 Calma -- -- 0 943.7 1.3 82
2019-09-28 09:00:00 14.3 0 Calma 0 Calma 0 943.3 1 87
2019-09-28 08:00:00 14.3 0 Calma 0 Calma 0 942.8 0.6 83
2019-09-28 07:00:00 14.7 0 Calma 5 Este 0 942.4 0.4 79
2019-09-28 06:00:00 15.1 0 Calma 6 Este 0 942.3 -0.1 75
2019-09-28 05:00:00 17 0 Calma 8 Sudoeste 0 942.2 -0.2 70
2019-09-28 04:00:00 17.8 0 Calma 10 Sudoeste 0 942 -0.4 67
2019-09-28 03:00:00 17.3 0 Calma 4 Sur 0 942.4 -0.1 64
2019-09-28 02:00:00 18.3 0 Calma 4 Sudeste 0 942.4 0.2 56
2019-09-28 01:00:00 20 0 Calma 10 Sur 0 942.4 0.6 48
2019-09-28 00:00:00 20.6 5 Sudoeste 11 Sur 0 942.5 1.4 47
2019-09-27 23:00:00 21 3 Sudoeste 8 Sur 0 942.2 1.4 45
2019-09-27 22:00:00 21.7 0 Calma 3 Este 0 941.8 1.3 42
2019-09-27 21:00:00 23.6 3 Este 9 Noroeste 0 941.1 0.7 36
2019-09-27 20:00:00 26.2 0 Calma 15 Nordeste 0 940.8 0.3 31
2019-09-27 19:00:00 28.3 4 Noroeste 14 Noroeste 0 940.5 -0.2 27
2019-09-27 18:00:00 30.1 4 Noroeste 17 Norte 0 940.4 -1.2 26
2019-09-27 17:00:00 30.5 3 Noroeste 17 Noroeste 0 940.5 -1.3 26
2019-09-27 16:00:00 30 4 Oeste 19 Oeste 0 940.7 -1.6 27
2019-09-27 15:00:00 28.9 6 Oeste 18 Oeste 0 941.6 -1.3 29
2019-09-27 14:00:00 28.5 3 Noroeste 15 Oeste 0 941.8 -1.3 31
2019-09-27 13:00:00 26.2 4 Oeste 12 Sur 0 942.3 -0.6 37
2019-09-27 12:00:00 23.2 4 Oeste 9 Oeste 0 942.9 0.2 44
2019-09-27 11:00:00 19.4 2 Sudoeste 6 Oeste 0 943.1 0.7 56
2019-09-27 10:00:00 17.4 2 Oeste 8 Sudoeste 0 942.9 1 75
2019-09-27 09:00:00 15 0 Calma 2 Sudoeste 0 942.7 0.9 92
2019-09-27 08:00:00 15.2 0 Calma 5 Norte 0 942.4 0.9 90
2019-09-27 07:00:00 16 0 Calma 4 Sudoeste 0 941.9 0.2 85
2019-09-27 06:00:00 16.9 0 Calma 12 Sur 0 941.8 -0.1 90
2019-09-27 05:00:00 17.4 0 Calma 6 Sudeste 0 941.5 -0.6 90
2019-09-27 04:00:00 17.9 2 Sur 9 Sudoeste 0 941.7 -0.8 89
2019-09-27 03:00:00 18.6 0 Calma 12 Sudoeste 0 941.9 -0.8 87
2019-09-27 02:00:00 19.2 3 Sur 15 Sudeste 0 942.1 -0.4 85
2019-09-27 01:00:00 19.6 4 Sur 15 Sudeste 0 942.5 0.4 83
2019-09-27 00:00:00 20.3 2 Sur 16 Sudoeste 0 942.7 1.4 80
2019-09-26 23:00:00 21.2 5 Sur 18 Sudoeste 0 942.5 1.5 73
2019-09-26 22:00:00 22.4 6 Sur 21 Sudoeste 0 942.1 1.4 63
2019-09-26 21:00:00 23.8 4 Sur 16 Sur 0 941.3 0.8 54
2019-09-26 20:00:00 25.4 5 Sur 14 Sudoeste 0 941 0 43
2019-09-26 19:00:00 26.7 3 Sudoeste 14 Sudoeste 0 940.7 -0.5 36
2019-09-26 18:00:00 28.3 5 Sur 12 Este 0 940.5 -1 32
2019-09-26 17:00:00 28.3 5 Sudoeste 14 Sur 0 941 -1.1 31
2019-09-26 16:00:00 28.9 2 Sur 15 Sudeste 0 941.2 -1.6 31
2019-09-26 15:00:00 28.8 3 Sudeste 19 Oeste 0 941.5 -1.8 33
2019-09-26 14:00:00 27.2 3 Sudoeste 14 Sur 0 942.1 -1.5 36
2019-09-26 13:00:00 25.2 3 Sudeste 13 Sudeste 0 942.8 -0.3 41
2019-09-26 12:00:00 21.6 3 Este 9 Nordeste 0 943.3 0.6 52
2019-09-26 11:00:00 17.5 0 Calma 2 Nordeste 0 943.6 1.6 67
2019-09-26 10:00:00 15.2 0 Calma 0 Calma 0 943.1 1.3 81
2019-09-26 09:00:00 12.8 0 Calma 4 Este 0 942.7 1.2 88
2019-09-26 08:00:00 12.9 0 Calma 4 Nordeste 0 942 0.8 85
2019-09-26 07:00:00 13.7 0 Calma 7 Norte 0 941.8 0.7 78
2019-09-26 06:00:00 14.6 0 Calma -- -- 0 941.5 0.2 77
2019-09-26 05:00:00 15.1 0 Calma -- -- 0 941.2 -0.2 74
2019-09-26 04:00:00 16.1 0 Calma 9 Sudoeste 0 941.1 -0.3 69
2019-09-26 03:00:00 16.5 0 Calma 9 Sudoeste 0 941.3 -0.2 67
2019-09-26 02:00:00 17.3 3 Oeste 8 Sudoeste 0 941.4 0.1 61
2019-09-26 01:00:00 18 3 Sudoeste 10 Sudoeste 0 941.4 0.4 57
2019-09-26 00:00:00 18.6 2 Sudoeste 9 Sudoeste 0 941.5 1.1 55
2019-09-25 23:00:00 18.7 0 Calma 4 Oeste 0 941.3 1.5 54
2019-09-25 22:00:00 19.6 0 Calma 4 Noroeste 0 941 1.7 50
2019-09-25 21:00:00 21 0 Calma 7 Norte 0 940.4 1.1 44
2019-09-25 20:00:00 22.9 2 Noroeste 19 Oeste 0 939.8 0.7 38
2019-09-25 19:00:00 24.1 5 Noroeste 21 Sudoeste 0 939.3 -0.2 37
2019-09-25 18:00:00 25.5 8 Oeste 24 Oeste 0 939.3 -0.5 37
2019-09-25 17:00:00 25.8 7 Noroeste 24 Oeste 0 939.1 -1.3 38
2019-09-25 16:00:00 25.8 6 Noroeste 22 Sudoeste 0 939.5 -1.3 41
2019-09-25 15:00:00 25.4 5 Oeste 21 Oeste 0 939.8 -1.5 43
2019-09-25 14:00:00 23.8 8 Oeste 24 Oeste 0 940.4 -1 48
2019-09-25 13:00:00 22.8 5 Noroeste 23 Oeste 0 940.8 0 53
2019-09-25 12:00:00 20.9 6 Oeste 23 Oeste 0 941.3 0.9 63
2019-09-25 11:00:00 19.4 5 Oeste 18 Oeste 0 941.4 1.3 72
2019-09-25 10:00:00 18 5 Oeste 18 Oeste 0 940.8 1.1 80
2019-09-25 09:00:00 17.5 0 Calma 13 Oeste 0 940.4 0.6 83
2019-09-25 08:00:00 17.4 0 Calma 9 Sudoeste 0 940.1 0.7 80
2019-09-25 07:00:00 17.2 4 Oeste 11 Sudoeste 0 939.7 -0.2 76
2019-09-25 06:00:00 16.7 4 Oeste 10 Oeste 0 939.8 -0.5 71
2019-09-25 05:00:00 16.5 4 Oeste 11 Sudoeste 0 939.4 -0.8 68
2019-09-25 04:00:00 16.9 4 Oeste 8 Oeste 0 939.9 -0.5 62
2019-09-25 03:00:00 17.7 4 Sudoeste 9 Sudoeste 0 940.3 -0.3 56
2019-09-25 02:00:00 18.1 4 Sudoeste 10 Oeste 0 940.2 -0.4 51
2019-09-25 01:00:00 18.9 4 Oeste 12 Oeste 0 940.4 0.1 48
2019-09-25 00:00:00 19.9 5 Oeste 14 Sudoeste 0 940.6 0.5 45
2019-09-24 23:00:00 21.1 5 Sudoeste 13 Sudoeste 0 940.6 0.9 40
2019-09-24 22:00:00 22.2 5 Oeste 11 Oeste 0 940.3 0.8 37
2019-09-24 21:00:00 23 3 Oeste 10 Oeste 0 940.1 0.5 35
2019-09-24 20:00:00 25.5 2 Oeste 17 Oeste 0 939.7 -0.4 29
2019-09-24 19:00:00 27.5 6 Oeste 24 Oeste 0 939.5 -1.1 26
2019-09-24 18:00:00 28.8 7 Oeste 30 Oeste 0 939.6 -1.6 24
2019-09-24 17:00:00 29 8 Oeste 30 Oeste 0 940.1 -1.9 27
2019-09-24 16:00:00 28.7 6 Oeste 30 Oeste 0 940.6 -2.2 28
2019-09-24 15:00:00 27.4 8 Oeste 26 Oeste 0 941.2 -2 31
2019-09-24 14:00:00 26.6 4 Noroeste 24 Oeste 0 942 -1.7 33
2019-09-24 13:00:00 25.1 6 Oeste 23 Oeste 0 942.8 -0.4 37
2019-09-24 12:00:00 21.8 5 Oeste 17 Oeste 0 943.2 0.4 48
2019-09-24 11:00:00 18.1 4 Oeste 13 Noroeste 0 943.7 1.2 61
2019-09-24 10:00:00 16 0 Calma 6 Oeste 0 943.2 1.1 71
2019-09-24 09:00:00 13.8 0 Calma -- -- 0 942.8 0.7 83
2019-09-24 08:00:00 13.4 0 Calma 2 Sudoeste 0 942.5 0.3 81
2019-09-24 07:00:00 13.9 0 Calma 2 Sudoeste 0 942.1 -0.4 79
2019-09-24 06:00:00 14.4 0 Calma 8 Sur 0 942.1 -0.8 76
2019-09-24 05:00:00 14.9 0 Calma 8 Sudoeste 0 942.2 -1 76
2019-09-24 04:00:00 15.1 0 Calma 10 Sudoeste 0 942.5 -1 77
2019-09-24 03:00:00 15.5 0 Calma 7 Sur 0 942.9 -0.9 77
2019-09-24 02:00:00 16.5 0 Calma 11 Sur 0 943.2 -0.7 69
2019-09-24 01:00:00 17.1 0 Calma 7 Sudoeste 0 943.5 -0.2 65
2019-09-24 00:00:00 17.4 3 Sudoeste 7 Oeste 0 943.8 0.6 62
2019-09-23 23:00:00 17.9 0 Calma -- -- 0 943.9 1.1 60
2019-09-23 22:00:00 18.9 0 Calma -- -- 0 943.7 1.4 54
2019-09-23 21:00:00 20.1 0 Calma 8 Norte 0 943.2 0.8 48
2019-09-23 20:00:00 21.8 2 Noroeste 11 Norte 0 942.8 0.6 41
2019-09-23 19:00:00 23.3 2 Noroeste 14 Oeste 0 942.3 0.3 38
2019-09-23 18:00:00 24 5 Oeste 15 Oeste 0 942.4 -0.4 35
2019-09-23 17:00:00 24.9 3 Noroeste 21 Oeste 0 942.2 -1 33
2019-09-23 16:00:00 23.7 3 Oeste 13 Sudoeste 0 942 -1.9 36
2019-09-23 15:00:00 23.3 3 Oeste 15 Sudoeste 0 942.8 -1.4 38
2019-09-23 14:00:00 22.4 5 Oeste 13 Sudoeste 0 943.2 -1.1 42
2019-09-23 13:00:00 21.1 4 Oeste 14 Oeste 0.1 943.9 -0.1 47
2019-09-23 12:00:00 18.5 3 Oeste 14 Noroeste 0 944.2 0.9 61
2019-09-23 11:00:00 16 2 Sudoeste 9 Sudoeste 0 944.3 1.3 72
2019-09-23 10:00:00 14.3 4 Oeste 9 Sudoeste 0 944 1.6 78
2019-09-23 09:00:00 13 0 Calma 7 Sur 0 943.3 1.3 85
2019-09-23 08:00:00 12 0 Calma 7 Sudoeste 0 943 1.8 87
2019-09-23 07:00:00 12.2 0 Calma 4 Oeste 0 942.4 0.7 84
2019-09-23 06:00:00 12.7 0 Calma 13 Oeste 0 942 0.3 81
2019-09-23 05:00:00 13.4 0 Calma 10 Oeste 0 941.2 -0.2 78
2019-09-23 04:00:00 13.9 0 Calma 10 Sudoeste 0 941.7 0.3 77
2019-09-23 03:00:00 14.5 2 Sudoeste 10 Sudoeste 0 941.7 0.6 73
2019-09-23 02:00:00 15.4 0 Calma 12 Sudoeste 0 941.4 0.7 69
2019-09-23 01:00:00 16.5 0 Calma 13 Oeste 0 941.4 1.1 64
2019-09-23 00:00:00 17 0 Calma 10 Sudoeste 0 941.1 1.8 65
2019-09-22 23:00:00 18.2 4 Oeste 12 Sudoeste 0 940.7 1.9 61
2019-09-22 22:00:00 18.9 3 Oeste 19 Oeste 0 940.3 2.2 61
2019-09-22 21:00:00 19.6 6 Oeste 21 Oeste 0 939.3 1.6 60
2019-09-22 20:00:00 20.9 6 Oeste 24 Oeste 0 938.8 1.1 60
2019-09-22 19:00:00 22.4 7 Oeste 32 Oeste 0 938.1 0.3 59
2019-09-22 18:00:00 23.6 9 Oeste 33 Sudoeste 0 937.7 -0.1 47
2019-09-22 17:00:00 24.2 12 Sudoeste 28 Sudoeste 0 937.7 -0.1 52
2019-09-22 16:00:00 23.4 8 Oeste 24 Oeste 0 937.8 -0.4 54
2019-09-22 15:00:00 24.2 9 Oeste 31 Oeste 0 937.8 -0.7 52
2019-09-22 14:00:00 23.2 12 Oeste 39 Oeste 0 937.8 -0.7 56
2019-09-22 13:00:00 22.5 8 Oeste 27 Oeste 0 938.2 0.1 60
2019-09-22 12:00:00 20.6 8 Oeste 21 Oeste 0 938.5 0.9 67
2019-09-22 11:00:00 19.5 5 Sudoeste 23 Sudoeste 0 938.5 1 74
2019-09-22 10:00:00 18.9 7 Oeste 17 Oeste 0 938.1 1 78
2019-09-22 09:00:00 17.6 3 Sudoeste 14 Oeste 0 937.6 0.5 84
2019-09-22 08:00:00 17.4 4 Oeste 12 Sudoeste 0 937.5 0.5 82
2019-09-22 07:00:00 17.7 3 Oeste 15 Oeste 0 937.1 0 81
2019-09-22 06:00:00 17.9 3 Oeste 13 Oeste 0 937.1 -0.1 82
2019-09-22 05:00:00 18.2 4 Oeste 12 Oeste 0 937 -0.3 84
2019-09-22 04:00:00 18.4 3 Sudoeste 9 Sudoeste 0 937.1 -0.4 86
2019-09-22 03:00:00 18.7 3 Oeste 18 Oeste 0 937.2 -0.6 83
2019-09-22 02:00:00 19.4 5 Oeste 13 Oeste 0 937.3 -0.4 80
2019-09-22 01:00:00 19.8 2 Oeste 10 Oeste 0 937.5 0.3 78
2019-09-22 00:00:00 20.4 0 Calma 10 Oeste 0 937.8 1.2 74
2019-09-21 23:00:00 20.6 2 Sudoeste 9 Sudoeste 0 937.7 1.4 71
2019-09-21 22:00:00 20.9 3 Sudoeste 8 Sudoeste 0.1 937.2 0.7 70
2019-09-21 21:00:00 21.7 2 Oeste 13 Oeste 0 936.6 0.5 61
2019-09-21 20:00:00 22.8 3 Oeste 18 Oeste 0 936.3 0.2 50
2019-09-21 19:00:00 23.4 6 Oeste 25 Oeste 0 936.5 0 46
2019-09-21 18:00:00 24.5 9 Oeste 21 Oeste 0 936.1 -0.8 45
2019-09-21 17:00:00 23.9 8 Sudoeste 18 Sudoeste 0 936.1 -1.4 49
2019-09-21 16:00:00 23.8 0 Calma 13 Noroeste 0 936.5 -1.2 50
2019-09-21 15:00:00 23.6 0 Calma 12 Oeste 0 936.9 -1.4 48
2019-09-21 14:00:00 23.1 0 Calma 9 Oeste 0 937.5 -0.6 51
2019-09-21 13:00:00 22.5 3 Este 8 Este 0.2 937.7 0 56
2019-09-21 12:00:00 21.6 0 Calma 10 Oeste 0 938.3 0.6 64
2019-09-21 11:00:00 19.3 5 Sudoeste 14 Sudoeste 0.1 938.1 0.4 79
2019-09-21 10:00:00 17.9 0 Calma 6 Sudoeste 0 937.7 0.1 91
2019-09-21 09:00:00 17.3 0 Calma 5 Oeste 0 937.7 -0.1 91
2019-09-21 08:00:00 17.1 0 Calma 15 Oeste 0 937.7 0.4 91
2019-09-21 07:00:00 18.1 3 Oeste 8 Oeste 0.1 937.6 -0.2 94
2019-09-21 06:00:00 18 0 Calma 10 Sudeste 0 937.8 -0.5 95
2019-09-21 05:00:00 18.1 0 Calma 8 Sur 0 937.3 -1 93
2019-09-21 04:00:00 18.6 3 Sur 13 Sudoeste 0 937.8 -0.7 88
2019-09-21 03:00:00 18.5 0 Calma 18 Sudeste 0 938.3 -0.6 87
2019-09-21 02:00:00 19.1 3 Sur 17 Sudeste 0 938.3 -0.5 84
2019-09-21 01:00:00 19.6 4 Sudeste 13 Sudoeste 0 938.5 0.9 82
2019-09-21 00:00:00 19.7 2 Sudeste 10 Sudeste 0 938.9 0.5 83
2019-09-20 23:00:00 19.7 0 Calma 15 Este 0 938.8 0.4 82
2019-09-20 22:00:00 20.2 6 Este 20 Sudeste 0 937.6 -0.5 73
2019-09-20 21:00:00 21.1 5 Este 19 Este 0 938.4 0.5 70
2019-09-20 20:00:00 22.2 6 Sudeste 24 Sudeste 0 938.4 0.2 61
2019-09-20 19:00:00 23 8 Sudeste 29 Sudeste 0 938.1 -0.6 57
2019-09-20 18:00:00 23.6 9 Sudeste 27 Sudeste 0 937.9 -1.3 56
2019-09-20 17:00:00 24.3 9 Sudeste 27 Sudeste 0 938.2 -1.5 53
2019-09-20 16:00:00 25 8 Este 26 Sur 0 938.7 -1.5 52
2019-09-20 15:00:00 24.1 7 Este 21 Sudeste 0 939.2 -1.3 53
2019-09-20 14:00:00 23.3 6 Sudeste 23 Sudeste 0 939.7 -1 57
2019-09-20 13:00:00 22.4 7 Sudeste 23 Sudeste 0 940.2 -0.5 63
2019-09-20 12:00:00 21.6 6 Este 20 Sudeste 0 940.5 0.2 67
2019-09-20 11:00:00 19.7 4 Este 18 Este 0 940.7 0.2 80
2019-09-20 10:00:00 18.1 4 Este 14 Este 0 940.7 0.2 86
2019-09-20 09:00:00 17.7 4 Este 15 Nordeste 0 940.3 -0.1 87
2019-09-20 08:00:00 17.7 4 Este 16 Este 0 940.5 0.1 87
2019-09-20 07:00:00 17.6 5 Este 17 Sudeste 0 940.5 -0.1 88
2019-09-20 06:00:00 17.3 4 Este 15 Nordeste 0 940.4 -0.5 90
2019-09-20 05:00:00 17 2 Nordeste 11 Este 0 940.4 -0.4 90
2019-09-20 04:00:00 17.5 3 Este 11 Este 0 940.6 -0.4 92
2019-09-20 03:00:00 17.7 2 Este 9 Este 0 940.9 -0.1 91
2019-09-20 02:00:00 18.1 0 Calma 11 Este 0 940.8 0 89
2019-09-20 01:00:00 18.8 2 Este 9 Sudeste 0 941 0.7 80
2019-09-20 00:00:00 19.3 3 Este 13 Sudeste 0 941 1.4 70
2019-09-19 23:00:00 20 2 Este 17 Sudeste 0 940.8 1.8 66
2019-09-19 22:00:00 21.3 5 Sudeste 17 Sudoeste 0 940.3 1.6 58
2019-09-19 21:00:00 22.4 4 Sur 18 Sudoeste 0 939.6 0.8 57
2019-09-19 20:00:00 24.1 5 Sur 19 Sur 0 939 0.1 47
2019-09-19 19:00:00 25.6 5 Sur 22 Sur 0 938.7 -0.4 43
2019-09-19 18:00:00 26.9 8 Sur 22 Sudoeste 0 938.8 -0.5 39
2019-09-19 17:00:00 26.4 5 Sur 17 Sudoeste 0 938.9 -1.1 40
2019-09-19 16:00:00 25.6 5 Sur 21 Sur 0 939.1 -1.2 41
2019-09-19 15:00:00 28 6 Sudeste 18 Sur 0 939.3 -1.3 37
2019-09-19 14:00:00 27.7 4 Sudeste 19 Sudoeste 0 940 -0.8 38
2019-09-19 13:00:00 27.1 4 Sudeste 14 Sur 0 940.3 -0.3 42
2019-09-19 12:00:00 23.8 3 Este 12 Este 0 940.6 0.3 54
2019-09-19 11:00:00 20.5 2 Este 7 Este 0 940.8 0.9 74
2019-09-19 10:00:00 18.1 3 Este 8 Este 0 940.6 0.7 89
2019-09-19 09:00:00 16.6 0 Calma 4 Este 0 940.3 0.8 94
2019-09-19 08:00:00 15.9 0 Calma 8 Este 0 939.9 0.2 92
2019-09-19 07:00:00 16.5 0 Calma 4 Nordeste 0 939.9 0.2 92
2019-09-19 06:00:00 17.1 0 Calma 5 Este 0 939.5 -0.5 91
2019-09-19 05:00:00 18.1 0 Calma 10 Sudeste 0 939.7 -0.5 90
2019-09-19 04:00:00 18 0 Calma 6 Sudeste 0 939.7 -0.4 90
2019-09-19 03:00:00 18.6 0 Calma 4 Nordeste 0 940 -0.2 86
2019-09-19 02:00:00 19.6 0 Calma 10 Sudoeste 0 940.2 0.3 80
2019-09-19 01:00:00 19.4 0 Calma 7 Sudoeste 0 940.1 0.5 77
2019-09-19 00:00:00 20.4 0 Calma 8 Sudoeste 0 940.2 0.9 67
2019-09-18 23:00:00 21.1 2 Sudeste 8 Este 0 939.9 1.4 64
2019-09-18 22:00:00 22.2 0 Calma 7 Noroeste 0 939.6 1.3 58
2019-09-18 21:00:00 23.5 2 Oeste 9 Oeste 0 939.3 1 51
2019-09-18 20:00:00 25.4 2 Oeste 8 Oeste 0 938.5 0.1 40
2019-09-18 19:00:00 26.9 4 Oeste 11 Oeste 0 938.3 -0.6 35
2019-09-18 18:00:00 27.6 3 Sudoeste 17 Oeste 0 938.3 -1.2 34
2019-09-18 17:00:00 28.4 5 Oeste 14 Oeste 0 938.4 -1.5 33
2019-09-18 16:00:00 28.1 0 Calma 10 Sudeste 0 938.9 -1.3 34
2019-09-18 15:00:00 27.4 2 Nordeste 10 Noroeste 0 939.5 -0.8 37
2019-09-18 14:00:00 26 2 Noroeste 10 Nordeste 0 939.9 -0.4 43
2019-09-18 13:00:00 24.3 2 Nordeste 8 Sur 0 940.2 0.3 52
2019-09-18 12:00:00 21.3 3 Nordeste 7 Sur 0 940.3 0.9 66
2019-09-18 11:00:00 18.1 2 Sudoeste 7 Oeste 0 940.3 1.2 80
2019-09-18 10:00:00 16.4 0 Calma 7 Nordeste 0 939.9 0.9 91
2019-09-18 09:00:00 15.2 0 Calma -- -- 0 939.4 0.7 94
2019-09-18 08:00:00 14.9 0 Calma 4 Oeste 0 939.1 0.1 93
2019-09-18 07:00:00 15 2 Sudoeste 8 Sudoeste 0 939 -0.2 93
2019-09-18 06:00:00 15.6 0 Calma 4 Sudoeste 0 938.7 -0.6 93
2019-09-18 05:00:00 16.5 0 Calma 3 Este 0 939 -0.6 91
2019-09-18 04:00:00 17.1 0 Calma 9 Oeste 0 939.2 -0.3 89
2019-09-18 03:00:00 18.7 0 Calma 8 Sudoeste 0 939.3 -0.5 83
2019-09-18 02:00:00 19.2 2 Sur 14 Sur 0 939.6 0 80
2019-09-18 01:00:00 19.2 2 Sudeste 9 Sudeste 0 939.5 0 74
2019-09-18 00:00:00 19.2 0 Calma 11 Sudeste 0 939.8 0.9 73
2019-09-17 23:00:00 19.3 0 Calma 16 Sudoeste 0 939.6 0.1 67
2019-09-17 22:00:00 20 3 Este 15 Oeste 0 939.5 0.3 70
2019-09-17 21:00:00 20.3 6 Este 12 Oeste 0 938.9 0.9 67